createdAt,value
2018-07-30T00:00:10.209Z,4.67
2018-07-30T00:02:45.638Z,5.23
2018-07-30T00:05:15.215Z,4.80
2018-07-30T00:07:44.493Z,5.03
2018-07-30T00:10:13.855Z,4.77
2018-07-30T00:12:43.165Z,5.00
2018-07-30T00:15:12.686Z,4.53
2018-07-30T00:17:42.178Z,4.90
2018-07-30T00:20:11.554Z,5.20
2018-07-30T00:22:40.981Z,5.50
2018-07-30T00:25:11.002Z,4.87
2018-07-30T00:27:40.421Z,5.77
2018-07-30T00:30:09.937Z,5.90
2018-07-30T00:32:39.273Z,5.37
2018-07-30T00:35:09.017Z,4.87
2018-07-30T00:37:38.401Z,5.57
2018-07-30T00:40:11.682Z,6.00
2018-07-30T00:42:41.098Z,5.50
2018-07-30T00:45:10.496Z,5.90
2018-07-30T00:47:40.065Z,5.80
2018-07-30T00:50:09.509Z,5.30
2018-07-30T00:52:38.792Z,5.70
2018-07-30T00:55:08.217Z,5.43
2018-07-30T00:57:38.207Z,6.30
2018-07-30T01:00:08.749Z,5.93
2018-07-30T01:02:39.054Z,5.80
2018-07-30T01:05:08.521Z,6.00
2018-07-30T01:07:37.972Z,6.07
2018-07-30T01:10:07.562Z,6.17
2018-07-30T01:12:36.905Z,5.93
2018-07-30T01:15:06.685Z,6.20
2018-07-30T01:17:35.856Z,5.50
2018-07-30T01:20:05.229Z,6.53
2018-07-30T01:22:34.905Z,6.00
2018-07-30T01:25:04.351Z,6.70
2018-07-30T01:27:33.756Z,6.57
2018-07-30T01:30:03.218Z,6.50
2018-07-30T01:32:33.312Z,5.93
2018-07-30T01:35:02.705Z,5.83
2018-07-30T01:37:32.089Z,6.37
2018-07-30T01:40:01.482Z,6.70
2018-07-30T01:42:30.845Z,6.80
2018-07-30T01:45:00.133Z,6.70
2018-07-30T01:47:29.477Z,6.63
2018-07-30T01:49:58.839Z,5.73
2018-07-30T01:52:28.218Z,6.30
2018-07-30T01:54:57.658Z,6.20
2018-07-30T01:57:26.995Z,6.80
2018-07-30T01:59:56.410Z,7.63
2018-07-30T02:02:25.790Z,6.57
2018-07-30T02:04:55.231Z,6.90
2018-07-30T02:07:24.664Z,7.67
2018-07-30T02:09:54.330Z,7.47
2018-07-30T02:12:23.979Z,7.00
2018-07-30T02:14:53.390Z,6.70
2018-07-30T02:17:22.812Z,7.10
2018-07-30T02:19:52.292Z,7.37
2018-07-30T02:22:21.731Z,8.00
2018-07-30T02:24:51.329Z,7.13
2018-07-30T02:27:20.416Z,7.43
2018-07-30T02:29:50.043Z,7.13
2018-07-30T02:32:19.474Z,6.27
2018-07-30T02:34:48.920Z,7.67
2018-07-30T02:37:18.387Z,7.70
2018-07-30T02:39:47.822Z,7.17
2018-07-30T02:42:17.482Z,8.00
2018-07-30T02:44:46.674Z,6.40
2018-07-30T02:47:16.358Z,7.40
2018-07-30T02:49:45.718Z,7.63
2018-07-30T02:52:15.106Z,7.40
2018-07-30T02:54:44.558Z,6.30
2018-07-30T02:57:13.956Z,7.30
2018-07-30T02:59:43.331Z,6.17
2018-07-30T03:02:12.719Z,7.07
2018-07-30T03:04:42.070Z,7.00
2018-07-30T03:07:11.454Z,6.40
2018-07-30T03:09:40.813Z,6.43
2018-07-30T03:12:10.233Z,6.10
2018-07-30T03:14:39.551Z,6.93
2018-07-30T03:17:08.906Z,7.80
2018-07-30T03:19:38.300Z,6.70
2018-07-30T03:22:07.770Z,6.33
2018-07-30T03:24:37.122Z,7.83
2018-07-30T03:27:07.125Z,6.33
2018-07-30T03:29:36.649Z,6.60
2018-07-30T03:32:06.005Z,6.30
2018-07-30T03:34:35.401Z,7.03
2018-07-30T03:37:04.791Z,7.03
2018-07-30T03:39:34.149Z,6.13
2018-07-30T03:42:03.549Z,7.50
2018-07-30T03:44:32.917Z,6.60
2018-07-30T03:47:02.281Z,6.37
2018-07-30T03:49:31.637Z,6.53
2018-07-30T03:52:00.983Z,6.93
2018-07-30T03:54:30.325Z,7.30
2018-07-30T03:56:59.754Z,7.90
2018-07-30T03:59:29.177Z,6.20
2018-07-30T04:01:58.674Z,7.70
2018-07-30T04:04:28.046Z,7.00
2018-07-30T04:06:57.691Z,8.57
2018-07-30T04:09:27.022Z,6.97
2018-07-30T04:11:56.342Z,7.80
2018-07-30T04:14:25.812Z,7.40
2018-07-30T04:16:55.133Z,8.03
2018-07-30T04:19:24.593Z,7.40
2018-07-30T04:21:56.102Z,6.97
2018-07-30T04:24:25.424Z,7.40
2018-07-30T04:26:54.873Z,8.10
2018-07-30T04:29:24.787Z,7.57
2018-07-30T04:31:54.157Z,7.80
2018-07-30T04:34:23.489Z,7.20
2018-07-30T04:36:53.592Z,7.73
2018-07-30T04:39:23.517Z,7.50
2018-07-30T04:41:53.053Z,7.80
2018-07-30T04:44:22.497Z,6.97
2018-07-30T04:46:51.889Z,7.33
2018-07-30T04:49:21.314Z,7.33
2018-07-30T04:51:50.782Z,7.60
2018-07-30T04:54:20.226Z,7.37
2018-07-30T04:56:49.677Z,7.47
2018-07-30T04:59:19.133Z,6.73
2018-07-30T05:01:48.582Z,7.80
2018-07-30T05:04:17.960Z,7.77
2018-07-30T05:06:47.350Z,6.70
2018-07-30T05:09:16.766Z,6.90
2018-07-30T05:11:46.177Z,7.30
2018-07-30T05:14:15.586Z,6.87
2018-07-30T05:16:44.973Z,6.63
2018-07-30T05:19:14.457Z,6.10
2018-07-30T05:21:43.915Z,6.40
2018-07-30T05:24:13.297Z,6.30
2018-07-30T05:26:42.846Z,7.20
2018-07-30T05:29:12.018Z,6.73
2018-07-30T05:31:41.503Z,6.27
2018-07-30T05:34:11.053Z,6.30
2018-07-30T05:36:40.390Z,6.30
2018-07-30T05:39:11.283Z,6.17
2018-07-30T05:41:40.985Z,6.87
2018-07-30T05:44:10.525Z,6.20
2018-07-30T05:46:40.681Z,6.40
2018-07-30T05:49:10.134Z,6.40
2018-07-30T05:51:39.486Z,6.00
2018-07-30T05:54:08.902Z,6.63
2018-07-30T05:56:38.296Z,6.90
2018-07-30T05:59:07.763Z,5.30
2018-07-30T06:01:37.223Z,6.20
2018-07-30T06:04:06.674Z,6.43
2018-07-30T06:06:36.022Z,5.73
2018-07-30T06:09:07.829Z,6.20
2018-07-30T06:11:37.638Z,5.77
2018-07-30T06:14:07.062Z,6.20
2018-07-30T06:16:36.510Z,7.20
2018-07-30T06:19:05.882Z,5.90
2018-07-30T06:21:35.263Z,6.17
2018-07-30T06:24:04.762Z,6.40
2018-07-30T06:26:34.155Z,5.97
2018-07-30T06:29:03.661Z,6.53
2018-07-30T06:31:33.052Z,6.00
2018-07-30T06:34:02.582Z,5.87
2018-07-30T06:36:31.962Z,5.90
2018-07-30T06:39:01.323Z,6.30
2018-07-30T06:41:30.783Z,6.70
2018-07-30T06:44:00.160Z,6.57
2018-07-30T06:46:29.565Z,6.60
2018-07-30T06:48:59.666Z,6.53
2018-07-30T06:51:29.051Z,6.00
2018-07-30T06:53:58.523Z,6.03
2018-07-30T06:56:27.894Z,5.57
2018-07-30T06:58:57.309Z,6.53
2018-07-30T07:01:26.721Z,6.53
2018-07-30T07:03:56.136Z,5.73
2018-07-30T07:06:25.499Z,5.27
2018-07-30T07:08:54.866Z,5.10
2018-07-30T07:11:24.346Z,5.47
2018-07-30T07:13:53.758Z,5.13
2018-07-30T07:16:23.152Z,6.77
2018-07-30T07:18:52.534Z,5.63
2018-07-30T07:21:21.908Z,5.10
2018-07-30T07:23:51.379Z,5.07
2018-07-30T07:26:20.865Z,4.87
2018-07-30T07:28:50.233Z,4.67
2018-07-30T07:31:19.673Z,5.60
2018-07-30T07:33:49.062Z,4.87
2018-07-30T07:36:18.605Z,5.20
2018-07-30T07:38:47.939Z,5.20
2018-07-30T07:41:17.315Z,5.47
2018-07-30T07:43:47.218Z,5.17
2018-07-30T07:46:16.617Z,4.70
2018-07-30T07:48:46.343Z,5.20
2018-07-30T07:51:15.799Z,5.00
2018-07-30T07:53:45.072Z,5.50
2018-07-30T07:56:14.423Z,4.90
2018-07-30T07:58:43.774Z,5.00
2018-07-30T08:01:13.376Z,4.90
2018-07-30T08:03:42.769Z,4.47
2018-07-30T08:06:11.890Z,5.53
2018-07-30T08:08:41.524Z,5.20
2018-07-30T08:11:11.186Z,6.07
2018-07-30T08:13:40.555Z,7.07
2018-07-30T08:16:09.962Z,6.30
2018-07-30T08:18:39.367Z,5.00
2018-07-30T08:21:08.931Z,5.13
2018-07-30T08:23:38.603Z,4.97
2018-07-30T08:26:08.026Z,6.60
2018-07-30T08:28:37.126Z,5.67
2018-07-30T08:31:06.781Z,6.60
2018-07-30T08:33:36.129Z,5.90
2018-07-30T08:36:05.515Z,6.40
2018-07-30T08:38:34.991Z,6.27
2018-07-30T08:41:04.386Z,5.73
2018-07-30T08:43:33.818Z,6.50
2018-07-30T08:46:03.222Z,5.30
2018-07-30T08:48:32.558Z,5.27
2018-07-30T08:51:01.933Z,6.10
2018-07-30T08:53:31.543Z,5.40
2018-07-30T08:56:01.039Z,5.20
2018-07-30T08:58:30.417Z,4.80
2018-07-30T09:00:59.862Z,5.17
2018-07-30T09:03:29.588Z,5.20
2018-07-30T09:05:58.954Z,5.13
2018-07-30T09:08:28.345Z,5.87
2018-07-30T09:10:57.795Z,4.70
2018-07-30T09:13:27.298Z,4.90
2018-07-30T09:15:58.045Z,4.33
2018-07-30T09:18:27.227Z,3.50
2018-07-30T09:20:56.625Z,4.80
2018-07-30T09:23:26.245Z,3.00
2018-07-30T09:25:55.749Z,3.00
2018-07-30T09:28:25.102Z,3.50
2018-07-30T09:30:54.450Z,3.40
2018-07-30T09:33:23.931Z,3.20
2018-07-30T09:35:53.490Z,3.20
2018-07-30T09:38:23.613Z,3.03
2018-07-30T09:40:53.003Z,3.27
2018-07-30T09:43:22.805Z,2.50
2018-07-30T09:45:52.253Z,3.70
2018-07-30T09:48:21.678Z,3.70
2018-07-30T09:50:51.217Z,3.37
2018-07-30T09:53:21.106Z,3.33
2018-07-30T09:55:50.455Z,3.53
2018-07-30T09:58:20.168Z,4.40
2018-07-30T10:00:54.533Z,3.87
2018-07-30T10:03:24.191Z,3.60
2018-07-30T10:05:53.613Z,3.87
2018-07-30T10:08:23.079Z,4.93
2018-07-30T10:10:53.362Z,4.27
2018-07-30T10:13:22.825Z,4.13
2018-07-30T10:15:52.450Z,3.73
2018-07-30T10:18:22.335Z,4.20
2018-07-30T10:20:51.752Z,3.97
2018-07-30T10:23:21.250Z,3.23
2018-07-30T10:25:50.610Z,3.67
2018-07-30T10:28:19.990Z,3.70
2018-07-30T10:30:49.524Z,3.23
2018-07-30T10:33:19.458Z,3.70
2018-07-30T10:35:48.985Z,2.70
2018-07-30T10:38:18.545Z,3.60
2018-07-30T10:40:47.776Z,3.73
2018-07-30T10:43:17.182Z,3.43
2018-07-30T10:45:46.405Z,3.40
2018-07-30T10:48:15.778Z,4.10
2018-07-30T10:50:45.666Z,3.40
2018-07-30T10:53:15.102Z,3.70
2018-07-30T10:55:44.522Z,3.33
2018-07-30T10:58:13.941Z,4.37
2018-07-30T11:00:43.436Z,3.33
2018-07-30T11:03:13.069Z,3.70
2018-07-30T11:05:42.272Z,3.33
2018-07-30T11:08:11.786Z,3.43
2018-07-30T11:10:41.172Z,3.57
2018-07-30T11:13:10.887Z,3.20
2018-07-30T11:15:40.880Z,3.77
2018-07-30T11:18:10.304Z,2.93
2018-07-30T11:20:39.684Z,3.50
2018-07-30T11:23:09.069Z,3.00
2018-07-30T11:25:38.414Z,3.30
2018-07-30T11:28:07.805Z,3.47
2018-07-30T11:30:37.214Z,2.83
2018-07-30T11:33:06.622Z,3.60
2018-07-30T11:35:36.329Z,3.07
2018-07-30T11:38:06.308Z,3.53
2018-07-30T11:40:35.744Z,2.83
2018-07-30T11:43:05.139Z,2.20
2018-07-30T11:45:34.481Z,2.90
2018-07-30T11:48:03.986Z,3.20
2018-07-30T11:50:33.278Z,3.10
2018-07-30T11:53:02.733Z,2.90
2018-07-30T11:55:32.177Z,3.53
2018-07-30T11:58:01.550Z,2.80
2018-07-30T12:00:30.963Z,2.87
2018-07-30T12:03:00.115Z,3.00
2018-07-30T12:05:29.480Z,3.53
2018-07-30T12:07:58.840Z,3.10
2018-07-30T12:10:28.281Z,3.47
2018-07-30T12:12:57.683Z,3.00
2018-07-30T12:15:27.021Z,3.20
2018-07-30T12:17:56.446Z,3.17
2018-07-30T12:20:25.792Z,3.27
2018-07-30T12:22:55.223Z,2.50
2018-07-30T12:25:24.622Z,3.20
2018-07-30T12:27:54.255Z,3.30
2018-07-30T12:30:23.759Z,3.00
2018-07-30T12:32:53.112Z,3.03
2018-07-30T12:35:22.745Z,3.70
2018-07-30T12:37:52.214Z,3.27
2018-07-30T12:40:21.658Z,3.27
2018-07-30T12:42:51.153Z,3.80
2018-07-30T12:45:24.603Z,3.20
2018-07-30T12:47:53.985Z,3.20
2018-07-30T12:50:23.583Z,3.53
2018-07-30T12:52:52.959Z,3.50
2018-07-30T12:55:22.689Z,2.60
2018-07-30T12:57:52.781Z,3.27
2018-07-30T13:00:22.253Z,3.83
2018-07-30T13:02:51.764Z,2.90
2018-07-30T13:05:21.080Z,3.30
2018-07-30T13:07:50.846Z,3.30
2018-07-30T13:10:20.298Z,3.60
2018-07-30T13:19:36.917Z,3.13
2018-07-30T13:22:06.306Z,3.30
2018-07-30T13:24:35.656Z,3.63
2018-07-30T13:27:05.042Z,3.40
2018-07-30T13:29:34.537Z,2.70
2018-07-30T13:32:03.999Z,3.53
2018-07-30T13:34:33.469Z,2.53
2018-07-30T13:37:02.823Z,3.90
2018-07-30T13:39:32.350Z,4.27
2018-07-30T13:42:01.982Z,2.90
2018-07-30T13:44:31.333Z,3.40
2018-07-30T13:47:00.711Z,3.20
2018-07-30T13:49:30.120Z,3.70
2018-07-30T13:51:59.534Z,3.60
2018-07-30T13:54:29.040Z,3.10
2018-07-30T13:56:58.594Z,3.10
2018-07-30T13:59:28.218Z,3.17
2018-07-30T14:01:57.654Z,2.93
2018-07-30T14:04:27.041Z,3.13
2018-07-30T14:06:56.584Z,3.27
2018-07-30T14:09:25.995Z,3.37
2018-07-30T14:11:55.375Z,3.42
2018-07-30T14:14:24.833Z,2.90
2018-07-30T14:16:54.185Z,3.30
2018-07-30T14:19:23.929Z,3.42
2018-07-30T14:21:53.290Z,2.70
2018-07-30T14:24:22.701Z,3.72
2018-07-30T14:26:52.149Z,3.42
2018-07-30T14:29:21.563Z,3.15
2018-07-30T14:31:51.452Z,3.00
2018-07-30T14:34:20.854Z,2.77
2018-07-30T14:36:50.244Z,3.00
2018-07-30T14:39:19.661Z,3.65
2018-07-30T14:41:49.128Z,2.92
2018-07-30T14:44:18.522Z,3.12
2018-07-30T14:46:48.347Z,3.10
2018-07-30T14:49:17.907Z,2.75
2018-07-30T14:51:47.114Z,2.67
2018-07-30T14:54:16.570Z,2.60
2018-07-30T14:56:46.041Z,2.87
2018-07-30T14:59:15.501Z,2.90
2018-07-30T15:01:45.558Z,3.02
2018-07-30T15:04:15.021Z,3.10
2018-07-30T15:06:44.406Z,2.80
2018-07-30T15:09:14.466Z,2.33
2018-07-30T15:11:44.098Z,2.90
2018-07-30T15:14:13.426Z,3.00
2018-07-30T15:16:42.888Z,2.98
2018-07-30T15:19:12.278Z,3.83
2018-07-30T15:21:41.629Z,2.80
2018-07-30T15:24:10.966Z,2.83
2018-07-30T15:26:40.520Z,3.00
2018-07-30T15:29:09.988Z,3.07
2018-07-30T15:31:39.375Z,3.20
2018-07-30T15:34:08.933Z,2.97
2018-07-30T15:36:38.437Z,3.03
2018-07-30T15:39:11.904Z,3.30
2018-07-30T15:41:41.733Z,3.67
2018-07-30T15:44:11.210Z,3.57
2018-07-30T15:46:40.595Z,3.10
2018-07-30T15:49:10.768Z,2.63
2018-07-30T15:51:40.114Z,3.20
2018-07-30T15:54:09.651Z,3.77
2018-07-30T15:56:39.073Z,2.90
2018-07-30T15:59:08.452Z,3.63
2018-07-30T16:01:37.846Z,3.43
2018-07-30T16:04:07.314Z,2.63
2018-07-30T16:06:36.886Z,3.23
2018-07-30T16:09:08.425Z,2.80
2018-07-30T16:11:38.158Z,3.43
2018-07-30T16:14:07.519Z,3.23
2018-07-30T16:16:37.186Z,3.17
2018-07-30T16:19:06.418Z,2.40
2018-07-30T16:21:35.893Z,2.87
2018-07-30T16:24:05.392Z,2.83
2018-07-30T16:26:34.830Z,2.73
2018-07-30T16:29:05.234Z,3.27
2018-07-30T16:31:35.176Z,3.00
2018-07-30T16:34:04.952Z,3.03
2018-07-30T16:36:34.306Z,3.57
2018-07-30T16:39:04.038Z,3.40
2018-07-30T16:41:33.696Z,2.80
2018-07-30T16:44:03.078Z,3.30
2018-07-30T16:46:32.885Z,3.10
2018-07-30T16:49:02.275Z,2.70
2018-07-30T16:51:31.697Z,3.47
2018-07-30T16:54:01.123Z,2.83
2018-07-30T16:56:30.578Z,2.77
2018-07-30T16:59:00.334Z,3.07
2018-07-30T17:01:29.900Z,3.33
2018-07-30T17:03:59.319Z,3.40
2018-07-30T17:06:28.805Z,3.33
2018-07-30T17:08:58.174Z,3.20
2018-07-30T17:11:28.585Z,3.43
2018-07-30T17:13:58.045Z,3.40
2018-07-30T17:16:27.478Z,3.30
2018-07-30T17:18:57.104Z,3.50
2018-07-30T17:21:26.430Z,4.30
2018-07-30T17:23:55.860Z,3.30
2018-07-30T17:26:25.314Z,3.30
2018-07-30T17:28:54.489Z,3.30
2018-07-30T17:31:23.990Z,3.43
2018-07-30T17:33:53.420Z,3.70
2018-07-30T17:36:22.599Z,4.30
2018-07-30T17:38:52.043Z,3.10
2018-07-30T17:41:21.420Z,3.30
2018-07-30T17:43:50.882Z,3.20
2018-07-30T17:46:20.349Z,3.80
2018-07-30T17:48:49.725Z,3.33
2018-07-30T17:51:19.458Z,3.90
2018-07-30T17:53:48.959Z,3.33
2018-07-30T17:56:18.335Z,3.97
2018-07-30T17:58:47.760Z,3.40
2018-07-30T18:01:17.097Z,4.13
2018-07-30T18:03:46.430Z,3.37
2018-07-30T18:06:15.902Z,3.30
2018-07-30T18:08:45.223Z,3.40
2018-07-30T18:11:14.605Z,3.33
2018-07-30T18:13:44.156Z,3.20
2018-07-30T18:16:13.574Z,3.10
2018-07-30T18:18:42.926Z,3.80
2018-07-30T18:21:12.386Z,4.20
2018-07-30T18:23:41.819Z,3.37
2018-07-30T18:26:11.166Z,3.63
2018-07-30T18:28:40.570Z,4.33
2018-07-30T18:31:10.000Z,4.33
2018-07-30T18:33:39.574Z,3.57
2018-07-30T18:36:09.017Z,4.17
2018-07-30T18:38:38.393Z,3.33
2018-07-30T18:41:07.870Z,3.90
2018-07-30T18:43:37.290Z,3.50
2018-07-30T18:46:06.671Z,3.83
2018-07-30T18:48:36.352Z,4.00
2018-07-30T18:51:05.722Z,3.37
2018-07-30T18:53:35.329Z,4.10
2018-07-30T18:56:05.078Z,3.50
2018-07-30T18:58:34.493Z,3.40
2018-07-30T19:01:03.993Z,3.30
2018-07-30T19:03:33.174Z,3.63
2018-07-30T19:06:02.603Z,3.23
2018-07-30T19:08:31.965Z,3.80
2018-07-30T19:11:01.376Z,3.70
2018-07-30T19:13:30.769Z,3.90
2018-07-30T19:16:00.203Z,3.60
2018-07-30T19:18:29.558Z,3.27
2018-07-30T19:20:59.001Z,3.70
2018-07-30T19:23:28.415Z,3.97
2018-07-30T19:25:57.835Z,3.97
2018-07-30T19:28:26.877Z,3.70
2018-07-30T19:30:56.246Z,3.70
2018-07-30T19:33:25.645Z,4.10
2018-07-30T19:35:55.060Z,3.57
2018-07-30T19:38:24.417Z,3.23
2018-07-30T19:40:54.169Z,3.27
2018-07-30T19:43:23.533Z,4.30
2018-07-30T19:45:52.874Z,4.17
2018-07-30T19:48:22.401Z,3.63
2018-07-30T19:50:51.757Z,4.63
2018-07-30T19:53:21.255Z,4.10
2018-07-30T19:55:50.762Z,4.30
2018-07-30T19:58:20.555Z,3.20
2018-07-30T20:00:49.999Z,3.70
2018-07-30T20:03:19.498Z,4.20
2018-07-30T20:05:49.059Z,3.80
2018-07-30T20:08:18.701Z,4.50
2018-07-30T20:10:48.135Z,4.50
2018-07-30T20:13:17.578Z,4.10
2018-07-30T20:15:47.070Z,3.70
2018-07-30T20:18:16.509Z,4.30
2018-07-30T20:20:46.044Z,4.00
2018-07-30T20:23:15.521Z,4.00
2018-07-30T20:25:45.536Z,3.87
2018-07-30T20:28:15.106Z,4.67
2018-07-30T20:30:45.786Z,4.93
2018-07-30T20:33:15.129Z,3.97
2018-07-30T20:35:44.566Z,4.50
2018-07-30T20:38:14.111Z,4.97
2018-07-30T20:40:43.885Z,4.20
2018-07-30T20:43:13.237Z,4.40
2018-07-30T20:45:42.708Z,4.17
2018-07-30T20:48:12.373Z,4.57
2018-07-30T20:50:41.823Z,4.33
2018-07-30T20:53:11.157Z,4.37
2018-07-30T20:55:41.578Z,4.90
2018-07-30T20:58:11.082Z,5.27
2018-07-30T21:00:40.537Z,4.70
2018-07-30T21:03:09.951Z,5.30
2018-07-30T21:05:44.233Z,6.37
2018-07-30T21:08:14.973Z,4.70
2018-07-30T21:10:45.890Z,5.07
2018-07-30T21:13:16.444Z,5.60
2018-07-30T21:15:45.992Z,5.80
2018-07-30T21:18:15.356Z,5.53
2018-07-30T21:20:44.847Z,5.43
2018-07-30T21:23:14.241Z,5.50
2018-07-30T21:25:43.693Z,5.40
2018-07-30T21:28:13.574Z,4.80
2018-07-30T21:30:43.094Z,5.07
2018-07-30T21:33:12.478Z,5.40
2018-07-30T21:35:42.145Z,4.80
2018-07-30T21:38:11.301Z,4.90
2018-07-30T21:40:40.830Z,5.37
2018-07-30T21:43:10.209Z,5.30
2018-07-30T21:45:39.577Z,5.60
2018-07-30T21:48:08.993Z,5.13
2018-07-30T21:50:38.491Z,5.77
2018-07-30T21:53:08.442Z,5.40
2018-07-30T21:55:38.265Z,5.20
2018-07-30T21:58:07.649Z,5.53
2018-07-30T22:00:37.059Z,6.90
2018-07-30T22:03:06.814Z,5.13
2018-07-30T22:05:36.824Z,5.57
2018-07-30T22:08:06.610Z,5.13
2018-07-30T22:10:36.123Z,6.03
2018-07-30T22:13:05.624Z,5.40
2018-07-30T22:15:34.787Z,5.27
2018-07-30T22:18:04.191Z,5.10
2018-07-30T22:20:33.674Z,5.70
2018-07-30T22:23:03.103Z,6.00
2018-07-30T22:25:32.486Z,6.07
2018-07-30T22:28:02.235Z,5.87
2018-07-30T22:30:32.361Z,6.10
2018-07-30T22:33:01.854Z,6.07
2018-07-30T22:35:31.587Z,5.83
2018-07-30T22:38:00.650Z,6.20
2018-07-30T22:40:30.089Z,5.83
2018-07-30T22:42:59.546Z,5.93
2018-07-30T22:45:28.988Z,7.00
2018-07-30T22:47:58.335Z,6.50
2018-07-30T22:50:27.754Z,6.27
2018-07-30T22:52:57.557Z,6.80
2018-07-30T22:55:26.969Z,6.57
2018-07-30T22:57:56.491Z,6.03
2018-07-30T23:00:25.917Z,7.03
2018-07-30T23:02:55.494Z,6.17
2018-07-30T23:05:24.606Z,6.50
2018-07-30T23:07:53.977Z,6.87
2018-07-30T23:10:23.367Z,5.93
2018-07-30T23:12:52.815Z,6.67
2018-07-30T23:15:22.366Z,6.83
2018-07-30T23:17:51.761Z,6.17
2018-07-30T23:20:21.318Z,6.73
2018-07-30T23:22:50.763Z,6.77
2018-07-30T23:25:20.138Z,7.03
2018-07-30T23:27:49.469Z,6.37
2018-07-30T23:30:18.914Z,6.97
2018-07-30T23:32:48.367Z,5.70
2018-07-30T23:35:17.757Z,6.33
2018-07-30T23:37:47.082Z,5.63
2018-07-30T23:40:16.725Z,7.33
2018-07-30T23:42:46.161Z,7.30
2018-07-30T23:45:15.534Z,6.63
2018-07-30T23:47:45.853Z,7.00
2018-07-30T23:50:15.305Z,7.33
2018-07-30T23:52:44.721Z,7.73
2018-07-30T23:55:13.142Z,7.00
2018-07-30T23:57:42.474Z,7.13
